Tiempo atmosférico en la estación meteorológica de Candeleda, Ávila (350 m.)



Fecha
DESCASC
Temp. máxima en grados centígrados (hora)
DESCASC
Temp. mínima en grados centígrados (hora)
DESCASC
Temp. media en grados centígrados
DESCASC
Racha de viento máxima en m/sg (hora)
DESCASC
Velocidad máxima media en intervalos de 10 minutos(hora)
DESCASC
Precipitaciones diarias en mm
DESCASC
Precipitaciones de 00:00 a 06:00 en mm
DESCASC
Precipitaciones de 06:00 a 12:00 en mm
DESCASC
Precipitaciones de 12:00 a 18:00 en mm
DESCASC
Precipitaciones de 18:00 a 24:00 en mm
DESCASC
16-01-2020 16.5 (16:40) 8.1 (00:00) 12.3 9.17 (22:10) 5.83 (22:10) 6 4.2 0.6 0 1.2
15-01-2020 8.8 (22:40) 5.7 (05:40) 7.3 6.11 (13:40) 3.06 (13:40) 17.4 0 6.2 8.4 2.8
14-01-2020 11.6 (15:40) -2.9 (08:30) 4.4 3.06 (22:40) 1.94 (23:00) 0.4 0 0 0 0.4
13-01-2020 12.5 (16:40) -2.2 (06:30) 5.1 4.17 (14:00) 1.94 (19:20) 0 0 0 0 0
12-01-2020 13 (16:30) -2.4 (-00:0) 5.3 3.89 (14:40) 1.67 (14:30) 0 0 0 0 0
11-01-2020 14.2 (16:40) -1 (-00:0) 6.6 3.06 (14:00) 2.22 (00:20) 0 0 0 0 0
10-01-2020 14.7 (16:20) 1 (00:00) 7.8 4.44 (12:40) 3.06 (12:40) 0 0 0 0 0
09-01-2020 13.9 (16:20) -0.1 (00:00) 6.9 3.89 (12:40) 1.94 (12:40) 0 0 0 0 0
08-01-2020 15.7 (16:50) -0.5 (-00:0) 7.6 2.78 (15:00) 1.67 (22:10) 0 0 0 0 0
07-01-2020 15.5 (16:20) -0.2 (00:00) 7.6 2.5 (14:40) 1.39 (14:40) 0 0 0 0 0
06-01-2020 15 (16:10) -0.7 (-00:0) 7.2 2.78 (11:50) 1.67 (02:50) 0 0 0 0 0
05-01-2020 14.4 (16:20) -0.6 (-00:0) 6.9 3.89 (15:50) 1.67 (15:30) 0 0 0 0 0
04-01-2020 14.1 (17:00) -0.6 (-00:0) 6.8 2.78 (18:50) 2.5 (18:50) 0 0 0 0 0
03-01-2020 12 (15:30) 0.2 (00:00) 6.1 2.5 (06:00) 1.67 (16:10) 0 0 0 0 0
02-01-2020 4.6 (15:40) -1 (-00:0) 1.8 2.22 (15:30) 1.11 (14:50) 0 0 0 0 0
01-01-2020 11.3 (17:00) -0.3 (00:00) 5.5 2.22 (14:40) 1.39 (14:20) 0 0 0 0 0
31-12-2019 15.2 (16:10) 0.1 (00:00) 7.6 3.61 (15:10) 1.67 (15:10) 0 0 0 0 0
30-12-2019 -- (--) -- (--) -- -- (--) -- (--) -- 0 0 0 --
29-12-2019 19.7 (16:40) 0.9 (00:00) 10.3 2.5 (02:20) 2.22 (01:50) 0 0 0 0 0
28-12-2019 19.1 (17:10) 1.1 (00:00) 10.1 2.22 (16:00) 1.67 (22:20) 0 0 0 0 0
27-12-2019 18.5 (16:40) 2.7 (00:00) 10.6 3.61 (03:00) 2.5 (03:00) 0 0 0 0 0
26-12-2019 19.2 (16:50) 4.8 (00:00) 12 3.06 (13:40) 1.94 (19:00) 0 0 0 0 0
25-12-2019 18.2 (15:10) 4.8 (00:00) 11.5 2.78 (14:10) 1.67 (01:00) 0 0 0 0 0
24-12-2019 17.9 (16:10) 4.2 (00:00) 11 2.5 (13:40) 1.39 (12:50) 0 0 0 0 0
23-12-2019 15.9 (16:10) 4.6 (00:00) 10.2 4.17 (02:10) 2.78 (06:20) 0 0 0 0 0
22-12-2019 15.8 (17:10) 9.3 (00:00) 12.6 18.33 (01:00) 10.83 (01:10) 0 0 0 0 0
21-12-2019 17.7 (12:50) 11.7 (00:00) 14.7 23.89 (16:40) 12.22 (17:20) 33.4 8 23.4 1.8 0.2
20-12-2019 14.9 (20:50) 11.8 (00:00) 13.3 16.11 (06:40) 9.17 (02:40) 68.6 16 0 30 22.6
19-12-2019 14.6 (23:40) 8.9 (02:10) 11.8 11.67 (23:40) 6.11 (23:40) 89 11.2 13.8 32.2 31.8

Gráficas

Temp. máximas Temp. mínimas Temp. medias Precipitaciones Rachas de viento máximas Velocidades máximas media en intervalos de 10 minutos

Datos horarios

Fecha y hora oficial Temperatura (ºC) Velocidad del viento (km/h) Dirección del viento Racha (km/h) Dirección de racha Precipitación (mm) Presión (hPa) Tendencia (hPa) Humedad (%)
2020-01-17 23:00:00 8 3 Norte 7 Este 0 -- -- 96
2020-01-17 22:00:00 8.6 4 Noroeste 7 Noroeste 0 -- -- 96
2020-01-17 21:00:00 9 2 Nordeste 8 Nordeste 0 -- -- 92
2020-01-17 20:00:00 10 0 Calma 8 Norte 0 -- -- 88
2020-01-17 19:00:00 10.9 0 Calma 3 Oeste 0 -- -- 83
2020-01-17 18:00:00 13.1 0 Calma 7 Oeste 0 -- -- 72
2020-01-17 17:00:00 13.6 6 Oeste 13 Oeste 0 -- -- 75
2020-01-17 16:00:00 14.1 3 Noroeste 7 Este 0 -- -- 76
2020-01-17 15:00:00 13.2 2 Nordeste 9 Nordeste 0 -- -- 85
2020-01-17 14:00:00 11 2 Nordeste 5 Nordeste 0 -- -- 92
2020-01-17 13:00:00 10.4 0 Calma 11 Nordeste 0 -- -- 95
2020-01-17 12:00:00 9.8 3 Oeste 10 Sudoeste 0 -- -- 97
2020-01-17 11:00:00 9.4 5 Sudoeste 17 Sudoeste 0 -- -- 98
2020-01-17 10:00:00 8.9 5 Sudoeste 18 Sudoeste 0 -- -- 98
2020-01-17 09:00:00 8.9 17 Sudoeste 25 Sudoeste 0 -- -- 96
2020-01-17 08:00:00 9.3 8 Noroeste 24 Noroeste 0 -- -- 94
2020-01-17 07:00:00 8.5 3 Noroeste 10 Oeste 0 -- -- 97
2020-01-17 06:00:00 8 4 Oeste 14 Sudoeste 0 -- -- 97
2020-01-17 05:00:00 7.2 4 Oeste 6 Oeste 0 -- -- 94
2020-01-17 04:00:00 7.5 0 Calma 9 Oeste 0 -- -- 89
2020-01-17 03:00:00 9.5 5 Noroeste 10 Sudoeste 0 -- -- 89
2020-01-17 02:00:00 9.2 4 Sudoeste 12 Oeste 0 -- -- 91
2020-01-17 01:00:00 10.1 4 Oeste 17 Noroeste 0 -- -- 83
2020-01-17 00:00:00 10.2 11 Noroeste 25 Noroeste 0 -- -- 83
2020-01-16 23:00:00 9.9 10 Noroeste 33 Sudoeste 0.8 -- -- 82
2020-01-16 22:00:00 11.3 13 Oeste 32 Sudoeste 0.4 -- -- 69
2020-01-16 21:00:00 11.8 13 Oeste 19 Oeste 0 -- -- 72
2020-01-16 20:00:00 12.2 8 Noroeste 17 Noroeste 0 -- -- 65
2020-01-16 19:00:00 11.7 8 Noroeste 15 Noroeste 0 -- -- 71
2020-01-16 18:00:00 13.4 9 Oeste 13 Oeste 0 -- -- 66
2020-01-16 17:00:00 16.3 8 Oeste 14 Oeste 0 -- -- 55
2020-01-16 16:00:00 15.7 9 Oeste 17 Oeste 0 -- -- 53
2020-01-16 15:00:00 15.9 10 Oeste 18 Oeste 0 -- -- 62
2020-01-16 14:00:00 15.3 5 Sudoeste 12 Sur 0 -- -- 68
2020-01-16 13:00:00 14.2 4 Sur 11 Sudeste 0 -- -- 86
2020-01-16 12:00:00 12.4 6 Este 10 Este 0 -- -- 99
2020-01-16 11:00:00 10.3 0 Calma 8 Sudoeste 0 -- -- 100
2020-01-16 10:00:00 9.2 3 Oeste 5 Oeste 0 -- -- 100
2020-01-16 09:00:00 8.6 0 Calma 5 Este 0 -- -- 100
2020-01-16 08:00:00 8.8 0 Calma 4 Norte 0.4 -- -- 100
2020-01-16 07:00:00 8.4 3 Este 4 Este 0.2 -- -- 100
2020-01-16 06:00:00 8.2 0 Calma 7 Sudeste 1 -- -- 100
2020-01-16 05:00:00 8.2 0 Calma 3 Sudoeste 0.2 -- -- 100
2020-01-16 04:00:00 8.3 2 Sur 4 Este 0 -- -- 100
2020-01-16 03:00:00 8.3 4 Este 5 Noroeste 0 -- -- 100
2020-01-16 02:00:00 8.8 3 Oeste 4 Norte 0.6 -- -- 100
2020-01-16 01:00:00 8.3 0 Calma 6 Nordeste 2.4 -- -- 100
2020-01-16 00:00:00 8.1 4 Nordeste 8 Este 0.4 -- -- 100
2020-01-15 23:00:00 8.2 4 Sudeste 8 Este 0.4 -- -- 100
2020-01-15 22:00:00 8.5 3 Norte 8 Noroeste 1 -- -- 100
2020-01-15 21:00:00 8.1 0 Calma 6 Este 0.4 -- -- 100
2020-01-15 20:00:00 8.4 2 Oeste 5 Sudoeste 0.6 -- -- 100
2020-01-15 19:00:00 8.3 0 Calma 4 Norte 0 -- -- 100
2020-01-15 18:00:00 8.3 2 Este 5 Nordeste 0.4 -- -- 100
2020-01-15 17:00:00 8.3 2 Este 10 Este 1 -- -- 100
2020-01-15 16:00:00 8.3 8 Este 14 Este 1.2 -- -- 99
2020-01-15 15:00:00 8.3 8 Este 16 Este 1.8 -- -- 99
2020-01-15 14:00:00 8.2 10 Este 22 Este 2.2 -- -- 99
2020-01-15 13:00:00 7.7 9 Este 13 Nordeste 1.8 -- -- 100
2020-01-15 12:00:00 7.7 5 Nordeste 13 Nordeste 1.6 -- -- 100
2020-01-15 11:00:00 7.2 9 Este 13 Este 0.8 -- -- 100
2020-01-15 10:00:00 7 5 Nordeste 10 Nordeste 1.4 -- -- 100
2020-01-15 09:00:00 6.9 3 Sudeste 5 Nordeste 1.4 -- -- 100
2020-01-15 08:00:00 6.5 0 Calma 4 Nordeste 0.6 -- -- 100
2020-01-15 07:00:00 6 3 Nordeste 8 Este 0.4 -- -- 100
2020-01-15 06:00:00 5.9 3 Nordeste 9 Nordeste 0 -- -- 100
2020-01-15 05:00:00 6.3 6 Este 8 Nordeste 0 -- -- 99
2020-01-15 04:00:00 6.6 2 Nordeste 7 Nordeste 0 -- -- 99
2020-01-15 03:00:00 6.7 0 Calma 5 Oeste 0 -- -- 98
2020-01-15 02:00:00 6.8 2 Noroeste 4 Este 0 -- -- 98
2020-01-15 01:00:00 6.6 0 Calma 5 Este 0 -- -- 97
2020-01-15 00:00:00 6.7 4 Este 9 Nordeste 0 -- -- 96
2020-01-14 23:00:00 6.5 7 Nordeste 11 Nordeste 0 -- -- 96
2020-01-14 22:00:00 6.5 4 Nordeste 9 Nordeste 0.4 -- -- 94
2020-01-14 21:00:00 7.1 2 Noroeste 8 Sur 0 -- -- 88
2020-01-14 20:00:00 7.5 0 Calma 6 Noroeste 0 -- -- 83
2020-01-14 19:00:00 7.7 0 Calma 6 Sur 0 -- -- 79
2020-01-14 18:00:00 8.5 3 Noroeste 8 Sudoeste 0 -- -- 75
2020-01-14 17:00:00 9 3 Sudoeste 7 Sudoeste 0 -- -- 70
2020-01-14 16:00:00 10.2 4 Sudoeste 7 Sur 0 -- -- 66
2020-01-14 15:00:00 10.1 0 Calma 6 Este 0 -- -- 64
2020-01-14 14:00:00 9.4 4 Sudoeste 11 Sudoeste 0 -- -- 65
2020-01-14 13:00:00 8.9 2 Sudeste 6 Este 0 -- -- 68
2020-01-14 12:00:00 7.2 3 Sur 7 Sudeste 0 -- -- 76
2020-01-14 11:00:00 5.4 2 Sudoeste 4 Oeste 0 -- -- 90
2020-01-14 10:00:00 1.9 0 Calma 3 Sudeste 0 -- -- 97
2020-01-14 09:00:00 -2.6 3 Este 5 Nordeste 0 -- -- 100
2020-01-14 08:00:00 -2.1 2 Nordeste 4 Nordeste 0 -- -- 100
2020-01-14 07:00:00 -1.5 2 Este 5 Este 0 -- -- 100
2020-01-14 06:00:00 -1.6 3 Este 4 Este 0 -- -- 99
2020-01-14 05:00:00 -1 0 Calma 4 Nordeste 0 -- -- 98
2020-01-14 04:00:00 -0.9 2 Este 3 Oeste 0 -- -- 98
2020-01-14 03:00:00 -0.1 2 Nordeste 7 Nordeste 0 -- -- 98
2020-01-14 02:00:00 -0.4 4 Este -- -- 0 -- -- 97
2020-01-14 01:00:00 0.4 0 Calma 4 Este 0 -- -- 97
2020-01-14 00:00:00 0.5 3 Nordeste 5 Nordeste 0 -- -- 93
2020-01-13 23:00:00 1.3 0 Calma 4 Este 0 -- -- 93
2020-01-13 22:00:00 3.3 0 Calma 8 Oeste 0 -- -- 86
2020-01-13 21:00:00 3.4 5 Oeste 8 Oeste 0 -- -- 88
2020-01-13 20:00:00 3.8 2 Este 10 Norte 0 -- -- 85
2020-01-13 19:00:00 6.1 6 Noroeste 8 Norte 0 -- -- 75
2020-01-13 18:00:00 9.8 0 Calma 10 Sudoeste 0 -- -- 63
2020-01-13 17:00:00 11.7 4 Sur 9 Sudoeste 0 -- -- 56
2020-01-13 16:00:00 11.6 6 Sudoeste 10 Sur 0 -- -- 57
2020-01-13 15:00:00 9.9 3 Oeste 11 Sur 0 -- -- 61
2020-01-13 14:00:00 8.2 6 Sudoeste 15 Sudoeste 0 -- -- 68
2020-01-13 13:00:00 6.5 5 Sur 8 Sur 0 -- -- 76
2020-01-13 12:00:00 4.3 3 Sudoeste 5 Sudoeste 0 -- -- 84
2020-01-13 11:00:00 1.9 2 Sudoeste 3 Sudoeste 0 -- -- 94
2020-01-13 10:00:00 -0.1 0 Calma 3 Este 0 -- -- 95
2020-01-13 09:00:00 -1.9 2 Este 4 Este 0 -- -- 99
2020-01-13 08:00:00 -1.9 0 Calma 2 Este 0 -- -- 98
2020-01-13 07:00:00 -2.1 0 Calma 2 Noroeste 0 -- -- 98
2020-01-13 06:00:00 -1.5 2 Nordeste 5 Este 0 -- -- 98
2020-01-13 05:00:00 -1.1 0 Calma 4 Este 0 -- -- 97
2020-01-13 04:00:00 -0.8 2 Este 3 Este 0 -- -- 97
2020-01-13 03:00:00 -0.8 0 Calma 3 Este 0 -- -- 97
2020-01-13 02:00:00 -0.4 3 Este 5 Este 0 -- -- 95
2020-01-13 01:00:00 0.7 3 Este 4 Este 0 -- -- 94
2020-01-13 00:00:00 1.5 3 Nordeste 6 Este 0 -- -- 91
2020-01-12 23:00:00 1.3 -- -- -- -- 0 -- -- 88
2020-01-12 22:00:00 3.4 0 Calma 2 Norte 0 -- -- 84
2020-01-12 21:00:00 3.1 0 Calma 3 Sudeste 0 -- -- 83
2020-01-12 20:00:00 4.8 3 Norte 6 Norte 0 -- -- 77
2020-01-12 19:00:00 6.1 2 Noroeste 3 Norte 0 -- -- 73
2020-01-12 18:00:00 11.7 0 Calma 6 Sudeste 0 -- -- 53
2020-01-12 17:00:00 13 3 Sur 8 Sur 0 -- -- 51
2020-01-12 16:00:00 12.6 5 Sudeste 9 Sur 0 -- -- 51
2020-01-12 15:00:00 11 4 Sur 14 Sur 0 -- -- 55
2020-01-12 14:00:00 10.2 4 Sur 8 Sur 0 -- -- 59
2020-01-12 13:00:00 8.8 3 Sur 7 Sudeste 0 -- -- 64
2020-01-12 12:00:00 6.6 2 Oeste 4 Oeste 0 -- -- 74
2020-01-12 11:00:00 3.6 2 Este 4 Sudeste 0 -- -- 84
2020-01-12 10:00:00 2.5 0 Calma 3 Sudeste 0 -- -- 87
2020-01-12 09:00:00 -1.9 2 Nordeste -- -- 0 -- -- 96
2020-01-12 08:00:00 -1.5 0 Calma 4 Nordeste 0 -- -- 96
2020-01-12 07:00:00 -2.4 2 Este 4 Este 0 -- -- 95
2020-01-12 06:00:00 -1.6 0 Calma 4 Este 0 -- -- 96
2020-01-12 05:00:00 -1.5 2 Nordeste -- -- 0 -- -- 93
2020-01-12 04:00:00 -0.8 2 Nordeste 4 Este 0 -- -- 92
2020-01-12 03:00:00 -0.2 2 Este 3 Este 0 -- -- 90
2020-01-12 02:00:00 0.4 0 Calma 3 Este 0 -- -- 91
2020-01-12 01:00:00 0.8 3 Sudeste 4 Este 0 -- -- 90
2020-01-12 00:00:00 1.2 2 Sudeste 6 Este 0 -- -- 86
2020-01-11 23:00:00 2 5 Este 7 Este 0 -- -- 83
2020-01-11 22:00:00 3.3 3 Noroeste 5 Sudoeste 0 -- -- 80
2020-01-11 21:00:00 4.1 2 Nordeste 3 Nordeste 0 -- -- 76
2020-01-11 20:00:00 4.8 3 Norte 6 Sudeste 0 -- -- 79
2020-01-11 19:00:00 6.8 4 Noroeste 5 Noroeste 0 -- -- 67
2020-01-11 18:00:00 13.5 0 Calma 5 Sudeste 0 -- -- 47
2020-01-11 17:00:00 14.2 3 Sudeste 10 Sudoeste 0 -- -- 45
2020-01-11 16:00:00 13.9 4 Sudoeste 9 Sudeste 0 -- -- 45
2020-01-11 15:00:00 12.5 5 Sur 10 Sur 0 -- -- 48
2020-01-11 14:00:00 11.1 5 Este 11 Este 0 -- -- 54
2020-01-11 13:00:00 9.6 3 Nordeste 7 Nordeste 0 -- -- 56
2020-01-11 12:00:00 8.4 3 Este 7 Nordeste 0 -- -- 62
2020-01-11 11:00:00 4.4 5 Nordeste 8 Este 0 -- -- 80
2020-01-11 10:00:00 2.4 3 Este 6 Este 0 -- -- 85
2020-01-11 09:00:00 -0.8 3 Nordeste 6 Sudeste 0 -- -- 90
2020-01-11 08:00:00 0 3 Nordeste 6 Este 0 -- -- 92
2020-01-11 07:00:00 0.1 3 Este 4 Este 0 -- -- 89
2020-01-11 06:00:00 -0.1 4 Este 6 Norte 0 -- -- 87
2020-01-11 05:00:00 1 3 Norte 8 Norte 0 -- -- 84
2020-01-11 04:00:00 0.8 3 Nordeste 8 Norte 0 -- -- 83
2020-01-11 03:00:00 3 6 Norte 9 Norte 0 -- -- 78
2020-01-11 02:00:00 1.7 3 Nordeste 7 Noroeste 0 -- -- 82
2020-01-11 01:00:00 2.3 5 Norte 11 Sudeste 0 -- -- 84
2020-01-11 00:00:00 5.1 5 Noroeste 13 Noroeste 0 -- -- 65
2020-01-10 23:00:00 4.4 4 Nordeste 12 Nordeste 0 -- -- 72
2020-01-10 22:00:00 4.4 4 Sudoeste 8 Sur 0 -- -- 76
2020-01-10 21:00:00 5.1 4 Este 16 Este 0 -- -- 73
2020-01-10 20:00:00 6.3 5 Nordeste 7 Nordeste 0 -- -- 75
2020-01-10 19:00:00 7 4 Norte 7 Norte 0 -- -- 69
2020-01-10 18:00:00 11.7 4 Oeste 10 Sudoeste 0 -- -- 54
2020-01-10 17:00:00 14.4 5 Sudoeste 13 Sudoeste 0 -- -- 47
2020-01-10 16:00:00 14.1 7 Sudoeste 14 Sudoeste 0 -- -- 49
2020-01-10 15:00:00 14.3 4 Sur 15 Oeste 0 -- -- 49
2020-01-10 14:00:00 12.5 6 Oeste 14 Sudoeste 0 -- -- 57
2020-01-10 13:00:00 10.5 8 Sudoeste 16 Sudoeste 0 -- -- 68
2020-01-10 12:00:00 8.8 6 Sudoeste 14 Oeste 0 -- -- 81
2020-01-10 11:00:00 6.9 6 Sudoeste 8 Sudoeste 0 -- -- 87
2020-01-10 10:00:00 3.5 2 Norte 10 Oeste 0 -- -- 94
2020-01-10 09:00:00 2.2 3 Noroeste 6 Noroeste 0 -- -- 99
2020-01-10 08:00:00 2.2 5 Oeste 8 Nordeste 0 -- -- 100
2020-01-10 07:00:00 1.6 4 Este 8 Este 0 -- -- 99
2020-01-10 06:00:00 1.6 0 Calma 5 Sudeste 0 -- -- 99
2020-01-10 05:00:00 3.8 2 Nordeste 9 Nordeste 0 -- -- 98
2020-01-10 04:00:00 1.3 0 Calma 8 Este 0 -- -- 99
2020-01-10 03:00:00 2 6 Este 12 Este 0 -- -- 96
2020-01-10 02:00:00 2.2 2 Nordeste 8 Oeste 0 -- -- 97
2020-01-10 01:00:00 1.8 2 Oeste 6 Este 0 -- -- 96
2020-01-10 00:00:00 2.7 4 Este 6 Este 0 -- -- 93
2020-01-09 23:00:00 3.2 0 Calma 9 Este 0 -- -- 93
2020-01-09 22:00:00 5.6 0 Calma 10 Este 0 -- -- 90
2020-01-09 21:00:00 6.2 3 Norte 5 Nordeste 0 -- -- 89
2020-01-09 20:00:00 7.3 3 Noroeste 9 Norte 0 -- -- 83
2020-01-09 19:00:00 8.2 3 Noroeste 6 Sudoeste 0 -- -- 78
2020-01-09 18:00:00 9.6 5 Sudoeste 10 Sudoeste 0 -- -- 74
2020-01-09 17:00:00 12.7 6 Sudoeste 11 Sudoeste 0 -- -- 63
2020-01-09 16:00:00 13.3 5 Sudoeste 12 Sudoeste 0 -- -- 61
2020-01-09 15:00:00 12.5 6 Oeste 12 Sudoeste 0 -- -- 64
2020-01-09 14:00:00 11.7 6 Sudoeste 12 Sudoeste 0 -- -- 67
2020-01-09 13:00:00 9.9 4 Sudoeste 14 Sudoeste 0 -- -- 72
2020-01-09 12:00:00 8.3 5 Sudoeste 9 Sudoeste 0 -- -- 79
2020-01-09 11:00:00 6.9 5 Sudoeste 8 Sudoeste 0 -- -- 83
2020-01-09 10:00:00 5.6 4 Noroeste 9 Oeste 0 -- -- 94
2020-01-09 09:00:00 -0.1 4 Este 5 Este 0 -- -- 97
2020-01-09 08:00:00 1.8 0 Calma 4 Norte 0 -- -- 97
2020-01-09 07:00:00 1.3 3 Nordeste 3 Este 0 -- -- 95
2020-01-09 06:00:00 1.3 0 Calma 2 Sudoeste 0 -- -- 95
2020-01-09 05:00:00 2 0 Calma 5 Este 0 -- -- 96
2020-01-09 04:00:00 1.3 5 Nordeste 6 Este 0 -- -- 93
2020-01-09 03:00:00 3.4 3 Norte 5 Noroeste 0 -- -- 94
2020-01-09 02:00:00 2.9 4 Nordeste 8 Este 0 -- -- 94
2020-01-09 01:00:00 4.5 0 Calma 2 Oeste 0 -- -- 90
2020-01-09 00:00:00 3.1 0 Calma 5 Este 0 -- -- 90
2020-01-08 23:00:00 3.8 5 Este 8 Nordeste 0 -- -- 89
2020-01-08 22:00:00 7 4 Noroeste 6 Norte 0 -- -- 75
2020-01-08 21:00:00 5.1 4 Nordeste 7 Nordeste 0 -- -- 90
2020-01-08 20:00:00 7.5 5 Noroeste 6 Noroeste 0 -- -- 83
2020-01-08 19:00:00 8.2 5 Oeste 6 Oeste 0 -- -- 80
2020-01-08 18:00:00 11.5 0 Calma 5 Sur 0 -- -- 65
2020-01-08 17:00:00 15.4 4 Sudeste 6 Sudoeste 0 -- -- 55
2020-01-08 16:00:00 14.6 5 Sur 9 Sudoeste 0 -- -- 56
2020-01-08 15:00:00 13.2 5 Sudoeste 10 Sur 0 -- -- 61
2020-01-08 14:00:00 11.5 2 Oeste 6 Oeste 0 -- -- 68
2020-01-08 13:00:00 9.2 2 Sudoeste 6 Sudeste 0 -- -- 77
2020-01-08 12:00:00 6.7 0 Calma 6 Oeste 0 -- -- 89
2020-01-08 11:00:00 4.4 4 Oeste 6 Oeste 0 -- -- 95
2020-01-08 10:00:00 2.5 0 Calma 2 Nordeste 0 -- -- 98
2020-01-08 09:00:00 -0.1 0 Calma 3 Este 0 -- -- 100
2020-01-08 08:00:00 -0.4 3 Este 5 Este 0 -- -- 99
2020-01-08 07:00:00 0 2 Nordeste 7 Este 0 -- -- 100
2020-01-08 06:00:00 0.6 0 Calma 3 Este 0 -- -- 100
2020-01-08 05:00:00 1.2 4 Este 5 Este 0 -- -- 100
2020-01-08 04:00:00 1 4 Este 5 Este 0 -- -- 99
2020-01-08 03:00:00 1.4 -- -- -- -- 0 -- -- 99
2020-01-08 02:00:00 1.8 2 Este 5 Nordeste 0 -- -- 99
2020-01-08 01:00:00 1.5 4 Este 6 Este 0 -- -- 96
2020-01-08 00:00:00 2.3 0 Calma 3 Nordeste 0 -- -- 97
2020-01-07 23:00:00 3.3 2 Nordeste 4 Nordeste 0 -- -- 94
2020-01-07 22:00:00 3.8 0 Calma 3 Este 0 -- -- 91
2020-01-07 21:00:00 5.4 0 Calma 3 Norte 0 -- -- 87
2020-01-07 20:00:00 6.7 0 Calma 5 Oeste 0 -- -- 84
2020-01-07 19:00:00 8 2 Oeste 5 Sudoeste 0 -- -- 80
2020-01-07 18:00:00 11.6 3 Sudoeste 6 Sudoeste 0 -- -- 65
2020-01-07 17:00:00 14.8 4 Sudoeste 8 Sudoeste 0 -- -- 56
2020-01-07 16:00:00 14.9 4 Sudoeste 8 Sur 0 -- -- 54
2020-01-07 15:00:00 13.1 5 Sudoeste 9 Sudoeste 0 -- -- 58
2020-01-07 14:00:00 12.4 2 Sur 7 Sudoeste 0 -- -- 62
2020-01-07 13:00:00 9.5 3 Oeste 8 Noroeste 0 -- -- 73
2020-01-07 12:00:00 7.8 2 Este 6 Sur 0 -- -- 81
2020-01-07 11:00:00 6.6 2 Sudeste 4 Sudeste 0 -- -- 88
2020-01-07 10:00:00 3 2 Este 4 Este 0 -- -- 96
2020-01-07 09:00:00 -0.1 2 Este 3 Este 0 -- -- 97
2020-01-07 08:00:00 -0.1 0 Calma 4 Noroeste 0 -- -- 96
2020-01-07 07:00:00 0.4 2 Norte 3 Norte 0 -- -- 99
2020-01-07 06:00:00 1 0 Calma 2 Oeste 0 -- -- 99
2020-01-07 05:00:00 1.1 0 Calma 3 Nordeste 0 -- -- 98
2020-01-07 04:00:00 1.2 0 Calma 3 Este 0 -- -- 97
2020-01-07 03:00:00 1.6 0 Calma 5 Este 0 -- -- 98
2020-01-07 02:00:00 1.7 4 Este 5 Este 0 -- -- 95
2020-01-07 01:00:00 2 0 Calma 5 Este 0 -- -- 95
2020-01-07 00:00:00 4 2 Sudoeste 3 Norte 0 -- -- 93
2020-01-06 23:00:00 2.6 0 Calma 5 Este 0 -- -- 95
2020-01-06 22:00:00 3.6 4 Este 6 Nordeste 0 -- -- 90
2020-01-06 21:00:00 5.4 2 Este 5 Noroeste 0 -- -- 83
2020-01-06 20:00:00 7.5 4 Noroeste 5 Oeste 0 -- -- 80
2020-01-06 19:00:00 8 4 Noroeste 5 Oeste 0 -- -- 78
2020-01-06 18:00:00 10.7 0 Calma 5 Oeste 0 -- -- 66
2020-01-06 17:00:00 14.2 4 Sur 8 Sudoeste 0 -- -- 54
2020-01-06 16:00:00 14.7 4 Sur 8 Sur 0 -- -- 57
2020-01-06 15:00:00 13.2 4 Sur 9 Sudoeste 0 -- -- 62
2020-01-06 14:00:00 11.1 4 Sudoeste 10 Sudoeste 0 -- -- 68
2020-01-06 13:00:00 9.1 3 Sudoeste 8 Sudoeste 0 -- -- 74
2020-01-06 12:00:00 6.6 4 Sur 10 Oeste 0 -- -- 84
2020-01-06 11:00:00 5.5 0 Calma 5 Sudeste 0 -- -- 91
2020-01-06 10:00:00 2.6 2 Nordeste 5 Este 0 -- -- 96